Time;durP1;ratioP1;P1;durP2;ratioP2;P2;SDS_P1;SDS_P2;PMS_P1;PMS_P2;Temp;Humidity;BMP_temperature;BMP_pressure;BME280_temperature;BME280_humidity;BME280_pressure;Samples;Min_cycle;Max_cycle;Signal;HPM_P1;HPM_P2
2023/09/17 00:00:09;;;;;;;7.60;6.87;;;16.40;99.90;;;;;;2063098;28;20210;-83
2023/09/17 00:01:10;;;;;;;8.50;7.53;;;16.40;99.90;;;;;;2063093;28;20286;-83
2023/09/17 00:02:11;;;;;;;8.40;7.60;;;16.30;99.90;;;;;;2062979;28;20999;-83
2023/09/17 00:03:12;;;;;;;8.43;7.63;;;16.30;99.90;;;;;;2063471;28;20225;-83
2023/09/17 00:04:12;;;;;;;9.10;8.20;;;16.30;99.90;;;;;;2062774;28;20277;-83
2023/09/17 00:05:13;;;;;;;9.17;8.33;;;16.30;99.90;;;;;;2062642;28;20198;-82
2023/09/17 00:06:14;;;;;;;9.10;8.20;;;16.30;99.90;;;;;;2063362;28;20214;-83
2023/09/17 00:07:15;;;;;;;10.73;9.63;;;16.30;99.90;;;;;;2055053;28;20599;-83
2023/09/17 00:08:15;;;;;;;9.67;8.77;;;16.40;99.90;;;;;;2047095;28;20180;-83
2023/09/17 00:09:17;;;;;;;9.20;8.27;;;16.30;99.90;;;;;;2057221;28;20231;-83
2023/09/17 00:10:18;;;;;;;9.47;8.10;;;16.30;99.90;;;;;;2055245;28;20183;-83
2023/09/17 00:11:19;;;;;;;9.20;8.40;;;16.20;99.90;;;;;;2055935;28;20440;-83
2023/09/17 00:12:19;;;;;;;9.13;7.87;;;16.00;99.90;;;;;;2054879;28;20277;-83
2023/09/17 00:13:20;;;;;;;9.23;8.33;;;16.00;99.90;;;;;;2055855;28;20303;-83
2023/09/17 00:14:21;;;;;;;8.90;8.00;;;15.90;99.90;;;;;;2062500;28;20423;-84
2023/09/17 00:15:26;;;;;;;8.70;7.90;;;16.10;99.90;;;;;;2063173;28;20639;-83
2023/09/17 00:16:31;;;;;;;9.53;8.63;;;16.00;99.90;;;;;;2062912;28;20987;-84
2023/09/17 00:17:31;;;;;;;9.33;8.43;;;15.90;99.90;;;;;;2062800;28;20455;-83
2023/09/17 00:18:32;;;;;;;7.90;7.20;;;15.90;99.90;;;;;;2062711;28;20467;-83
2023/09/17 00:19:33;;;;;;;9.87;8.80;;;16.00;99.90;;;;;;2062842;28;20297;-83
2023/09/17 00:20:34;;;;;;;9.20;8.30;;;15.90;99.90;;;;;;2062349;28;20226;-83
2023/09/17 00:21:34;;;;;;;8.97;7.50;;;15.90;99.90;;;;;;2071219;28;20222;-83
2023/09/17 00:22:35;;;;;;;8.80;8.00;;;15.90;99.90;;;;;;2078839;28;20782;-83
2023/09/17 00:23:36;;;;;;;8.97;8.17;;;16.00;99.90;;;;;;2064118;28;20233;-84
2023/09/17 00:24:36;;;;;;;8.53;7.60;;;15.80;99.90;;;;;;2064141;28;20320;-83
2023/09/17 00:25:37;;;;;;;9.50;8.60;;;15.80;99.90;;;;;;2069442;28;20263;-83
2023/09/17 00:26:39;;;;;;;8.87;8.07;;;15.70;99.90;;;;;;2071812;28;20232;-83
2023/09/17 00:27:39;;;;;;;8.40;7.60;;;15.60;99.90;;;;;;2061576;28;20792;-83
2023/09/17 00:28:40;;;;;;;8.73;7.93;;;15.50;99.90;;;;;;2064017;28;20472;-83
2023/09/17 00:29:41;;;;;;;8.60;7.80;;;15.50;99.90;;;;;;2055736;28;20623;-83
2023/09/17 00:30:41;;;;;;;8.73;7.93;;;15.50;99.90;;;;;;2064186;28;20710;-83
2023/09/17 00:31:43;;;;;;;9.47;8.57;;;15.40;99.90;;;;;;2063964;28;20238;-83
2023/09/17 00:32:44;;;;;;;8.70;7.80;;;15.50;99.90;;;;;;2048243;28;20355;-83
2023/09/17 00:33:44;;;;;;;6.83;6.07;;;15.40;99.90;;;;;;2064324;28;20526;-84
2023/09/17 00:34:45;;;;;;;7.53;6.07;;;15.40;99.90;;;;;;2064554;28;20906;-83
2023/09/17 00:35:46;;;;;;;6.27;5.67;;;15.40;99.90;;;;;;2056179;28;20230;-83
2023/09/17 00:36:46;;;;;;;6.03;5.43;;;15.50;99.90;;;;;;2054506;28;20235;-84
2023/09/17 00:37:47;;;;;;;7.07;5.50;;;15.50;99.90;;;;;;2064294;28;20233;-83
2023/09/17 00:38:48;;;;;;;5.27;4.77;;;15.60;99.90;;;;;;2063773;28;20245;-83
2023/09/17 00:39:49;;;;;;;6.53;5.40;;;15.50;99.90;;;;;;2072637;28;20237;-83
2023/09/17 00:40:49;;;;;;;5.93;5.43;;;15.50;99.90;;;;;;2064220;28;20313;-83
2023/09/17 00:41:52;;;;;;;6.33;5.73;;;15.50;99.90;;;;;;2064402;28;20233;-83
2023/09/17 00:42:52;;;;;;;5.53;5.03;;;15.40;99.90;;;;;;2071881;28;20229;-83
2023/09/17 00:43:53;;;;;;;6.33;5.00;;;15.40;99.90;;;;;;2064411;28;20558;-83
2023/09/17 00:44:54;;;;;;;5.57;5.07;;;15.40;99.90;;;;;;2048161;28;20274;-83
2023/09/17 00:45:54;;;;;;;6.53;5.23;;;15.50;99.90;;;;;;2056301;28;20234;-83
2023/09/17 00:46:56;;;;;;;5.60;4.73;;;15.50;99.90;;;;;;2058952;28;20231;-83
2023/09/17 00:47:57;;;;;;;5.43;4.63;;;15.50;99.90;;;;;;2064458;28;20227;-83
2023/09/17 00:48:59;;;;;;;4.93;4.53;;;15.50;99.90;;;;;;2064025;28;20475;-84
2023/09/17 00:50:01;;;;;;;5.63;4.27;;;15.40;99.90;;;;;;2064563;28;20519;-83
2023/09/17 00:51:04;;;;;;;5.80;4.70;;;15.50;99.90;;;;;;2063605;28;20463;-84
2023/09/17 00:52:16;;;;;;;5.13;4.40;;;15.40;99.90;;;;;;2072780;28;20434;-83
2023/09/17 00:53:17;;;;;;;5.73;4.30;;;15.50;99.90;;;;;;2073000;28;20435;-83
2023/09/17 00:54:19;;;;;;;4.87;3.93;;;15.50;99.90;;;;;;2073473;28;20412;-83
2023/09/17 00:55:20;;;;;;;5.73;5.20;;;15.50;99.90;;;;;;2070064;28;20198;-84
2023/09/17 00:56:22;;;;;;;6.87;5.40;;;15.50;99.90;;;;;;2058040;28;20526;-84
2023/09/17 00:57:23;;;;;;;5.87;5.30;;;15.50;99.90;;;;;;2072596;28;20466;-84
2023/09/17 00:58:24;;;;;;;5.73;5.17;;;15.50;99.90;;;;;;2065189;28;20522;-84
2023/09/17 00:59:25;;;;;;;6.07;5.37;;;15.50;99.90;;;;;;2056696;28;20254;-84
2023/09/17 01:00:26;;;;;;;4.50;4.10;;;15.40;99.90;;;;;;2057624;28;20230;-84
2023/09/17 01:01:27;;;;;;;4.80;4.40;;;15.40;99.90;;;;;;2063236;28;20546;-84
2023/09/17 01:02:28;;;;;;;5.53;4.10;;;15.30;99.90;;;;;;2055841;28;20477;-84
2023/09/17 01:03:30;;;;;;;5.37;4.73;;;15.20;99.90;;;;;;2057009;28;20235;-83
2023/09/17 01:04:31;;;;;;;4.60;4.20;;;15.20;99.90;;;;;;2072899;28;20229;-83
2023/09/17 01:05:43;;;;;;;4.60;4.20;;;15.20;99.90;;;;;;2078087;28;20466;-83
2023/09/17 01:06:45;;;;;;;5.55;4.97;;;15.30;99.90;;;;;;2063374;28;20898;-84
2023/09/17 01:07:48;;;;;;;5.53;5.00;;;15.30;99.90;;;;;;2050829;28;20355;-83
2023/09/17 01:08:50;;;;;;;5.78;4.85;;;15.30;99.90;;;;;;2056040;28;20546;-82
2023/09/17 01:09:51;;;;;;;6.80;4.73;;;15.30;99.90;;;;;;2056067;28;20258;-84
2023/09/17 01:10:54;;;;;;;5.17;4.67;;;15.30;99.90;;;;;;2063376;28;20471;-83
2023/09/17 01:11:56;;;;;;;7.97;4.30;;;15.30;99.90;;;;;;2063707;28;20550;-84
2023/09/17 01:12:57;;;;;;;8.17;4.30;;;15.30;99.90;;;;;;2064158;28;20479;-83
2023/09/17 01:14:08;;;;;;;5.40;4.00;;;15.20;99.90;;;;;;2071798;28;20481;-84
2023/09/17 01:15:09;;;;;;;4.25;3.83;;;15.30;99.90;;;;;;2056172;28;20457;-83
2023/09/17 01:16:10;;;;;;;4.20;3.80;;;15.30;99.90;;;;;;2055270;28;20195;-83
2023/09/17 01:17:11;;;;;;;4.27;3.87;;;15.30;99.90;;;;;;2056143;28;20209;-84
2023/09/17 01:18:12;;;;;;;4.27;3.53;;;15.20;99.90;;;;;;2063904;28;20564;-83
2023/09/17 01:19:28;;;;;;;4.80;4.40;;;15.20;99.90;;;;;;2055825;28;20187;-84
2023/09/17 01:20:33;;;;;;;5.17;4.43;;;15.20;99.90;;;;;;2059547;28;20464;-83
2023/09/17 01:22:03;;;;;;;4.90;4.40;;;15.20;99.90;;;;;;2056695;28;20468;-83
2023/09/17 01:23:14;;;;;;;5.53;4.30;;;15.20;99.90;;;;;;2057285;28;20467;-84
2023/09/17 01:24:26;;;;;;;6.30;3.90;;;15.20;99.90;;;;;;2064746;28;20805;-85
2023/09/17 01:25:51;;;;;;;5.20;3.80;;;15.20;99.90;;;;;;2058538;28;20218;-85
2023/09/17 01:27:03;;;;;;;4.68;3.88;;;15.20;99.90;;;;;;2060129;28;20221;-84
2023/09/17 01:28:06;;;;;;;4.72;3.78;;;15.20;99.90;;;;;;2056103;28;20226;-84
2023/09/17 01:29:07;;;;;;;6.23;3.93;;;15.20;99.90;;;;;;2056124;28;20190;-84
2023/09/17 01:30:15;;;;;;;3.80;3.40;;;15.20;99.90;;;;;;2055796;28;20837;-84
2023/09/17 01:31:16;;;;;;;6.10;4.28;;;15.10;99.90;;;;;;2057025;28;20195;-84
2023/09/17 01:32:17;;;;;;;5.73;4.50;;;15.10;99.90;;;;;;2064454;28;20186;-83
2023/09/17 01:33:18;;;;;;;5.83;4.77;;;15.10;99.90;;;;;;2063632;28;20213;-84
2023/09/17 01:34:18;;;;;;;5.07;4.57;;;15.10;99.90;;;;;;2063465;28;20198;-84
2023/09/17 01:35:20;;;;;;;6.77;4.80;;;15.10;99.90;;;;;;2063534;28;20209;-84
2023/09/17 01:36:28;;;;;;;5.35;4.85;;;15.10;99.90;;;;;;2071791;28;20209;-83
2023/09/17 01:37:39;;;;;;;5.83;5.23;;;15.10;99.90;;;;;;2063690;28;20236;-83
2023/09/17 01:38:51;;;;;;;5.53;4.75;;;15.10;99.90;;;;;;2057309;28;20475;-83
2023/09/17 01:40:06;;;;;;;5.35;4.45;;;15.10;99.90;;;;;;2058421;28;20230;-83
2023/09/17 01:41:08;;;;;;;5.10;4.60;;;15.10;99.90;;;;;;2065381;28;20229;-84
2023/09/17 01:42:10;;;;;;;4.60;3.67;;;15.10;99.90;;;;;;2064245;28;20189;-83
2023/09/17 01:43:12;;;;;;;6.20;4.35;;;15.10;99.90;;;;;;2064084;28;20495;-83
2023/09/17 01:44:15;;;;;;;6.40;4.30;;;15.10;99.90;;;;;;2056158;28;20575;-83
2023/09/17 01:45:16;;;;;;;4.60;4.20;;;15.10;99.90;;;;;;2061089;28;20195;-83
2023/09/17 01:46:18;;;;;;;4.82;4.43;;;15.00;99.90;;;;;;2056452;28;20187;-83
2023/09/17 01:47:20;;;;;;;5.78;4.60;;;15.10;99.90;;;;;;2056148;28;20221;-83
2023/09/17 01:48:22;;;;;;;5.40;4.77;;;15.00;99.90;;;;;;2066144;28;20813;-84
2023/09/17 01:49:23;;;;;;;4.97;4.57;;;15.00;99.90;;;;;;2047609;28;21013;-83
2023/09/17 01:50:25;;;;;;;4.87;4.47;;;15.00;99.90;;;;;;2046934;28;20809;-84
2023/09/17 01:51:29;;;;;;;6.03;4.63;;;15.00;99.90;;;;;;2052806;28;20464;-83
2023/09/17 01:52:32;;;;;;;4.47;4.07;;;15.10;99.90;;;;;;2056027;28;20476;-83
2023/09/17 01:53:34;;;;;;;4.35;3.95;;;15.10;99.90;;;;;;2058586;28;20230;-84
2023/09/17 01:54:35;;;;;;;4.83;4.33;;;15.00;99.90;;;;;;2047826;28;20226;-84
2023/09/17 01:55:36;;;;;;;4.90;4.50;;;14.90;99.90;;;;;;2063608;28;20464;-83
2023/09/17 01:56:41;;;;;;;4.90;4.50;;;14.90;99.90;;;;;;2062551;28;20280;-83
2023/09/17 01:57:42;;;;;;;4.97;4.40;;;15.00;99.90;;;;;;2065685;28;20214;-83
2023/09/17 01:58:43;;;;;;;4.97;4.57;;;15.00;99.90;;;;;;2056165;28;20469;-84
2023/09/17 01:59:43;;;;;;;4.50;4.03;;;15.00;99.90;;;;;;2046927;28;20223;-83
2023/09/17 02:00:44;;;;;;;4.47;3.97;;;15.00;99.90;;;;;;2063493;28;20234;-84
2023/09/17 02:01:45;;;;;;;4.53;3.83;;;15.10;99.90;;;;;;2054936;28;20301;-84
2023/09/17 02:02:51;;;;;;;4.80;4.13;;;15.20;99.90;;;;;;2055326;28;20233;-83
2023/09/17 02:03:52;;;;;;;4.67;4.27;;;15.10;99.90;;;;;;2064570;28;20276;-84
2023/09/17 02:04:52;;;;;;;4.37;3.97;;;15.10;99.90;;;;;;2055145;28;20464;-83
2023/09/17 02:05:53;;;;;;;4.70;4.20;;;15.10;99.90;;;;;;2055907;28;20253;-83
2023/09/17 02:06:54;;;;;;;4.43;4.00;;;15.30;99.90;;;;;;2046901;28;20231;-84
2023/09/17 02:07:55;;;;;;;4.93;4.30;;;15.20;99.90;;;;;;2055405;28;20720;-83
2023/09/17 02:08:55;;;;;;;4.10;3.70;;;15.30;99.90;;;;;;2063661;28;20230;-83
2023/09/17 02:09:56;;;;;;;7.43;4.17;;;15.30;99.90;;;;;;2079127;28;20260;-85
2023/09/17 02:10:57;;;;;;;5.83;3.57;;;15.40;99.90;;;;;;2071276;28;20248;-83
2023/09/17 02:11:58;;;;;;;4.47;4.07;;;15.20;99.90;;;;;;2071307;28;20229;-83
2023/09/17 02:12:58;;;;;;;4.07;3.60;;;15.30;99.90;;;;;;2063065;28;20535;-83
2023/09/17 02:13:59;;;;;;;4.10;3.70;;;15.20;99.90;;;;;;2071826;28;20237;-83
2023/09/17 02:15:00;;;;;;;4.10;3.70;;;15.30;99.90;;;;;;2079327;28;20239;-84
2023/09/17 02:16:01;;;;;;;5.13;4.17;;;15.20;99.90;;;;;;2071909;28;20235;-83
2023/09/17 02:17:03;;;;;;;4.70;3.57;;;15.40;99.90;;;;;;2059564;28;20221;-83
2023/09/17 02:18:04;;;;;;;4.77;4.07;;;15.40;99.90;;;;;;2047640;28;20433;-83
2023/09/17 02:19:05;;;;;;;4.97;3.50;;;15.40;99.90;;;;;;2047643;28;20429;-83
2023/09/17 02:20:11;;;;;;;4.53;3.50;;;15.40;99.90;;;;;;2057369;28;20568;-84
2023/09/17 02:21:11;;;;;;;4.57;3.50;;;15.40;99.90;;;;;;2063045;28;20190;-83
2023/09/17 02:22:12;;;;;;;4.47;3.23;;;15.50;99.90;;;;;;2056980;28;21055;-83
2023/09/17 02:23:13;;;;;;;3.73;3.10;;;15.50;99.90;;;;;;2063230;28;20195;-84
2023/09/17 02:24:13;;;;;;;3.80;3.40;;;15.60;99.90;;;;;;2055846;28;20187;-84
2023/09/17 02:25:14;;;;;;;4.20;3.33;;;15.70;99.90;;;;;;2063187;28;20194;-83
2023/09/17 02:26:15;;;;;;;3.93;3.43;;;15.70;99.90;;;;;;2063913;28;20190;-84
2023/09/17 02:27:16;;;;;;;3.80;3.37;;;15.70;99.90;;;;;;2062833;28;20225;-84
2023/09/17 02:28:17;;;;;;;4.03;3.60;;;15.80;99.90;;;;;;2070712;28;20478;-83
2023/09/17 02:29:18;;;;;;;3.67;3.30;;;15.70;99.90;;;;;;2053397;28;20278;-84
2023/09/17 02:30:19;;;;;;;4.27;3.50;;;15.80;99.90;;;;;;2054904;28;20428;-83
2023/09/17 02:31:20;;;;;;;3.67;3.33;;;15.80;99.90;;;;;;2055168;28;20734;-84
2023/09/17 02:32:21;;;;;;;4.67;3.60;;;15.80;99.90;;;;;;2062744;28;20296;-84
2023/09/17 02:33:23;;;;;;;4.10;3.70;;;15.80;99.90;;;;;;2054444;28;20461;-84
2023/09/17 02:34:24;;;;;;;4.10;3.70;;;15.70;99.90;;;;;;2055151;28;20483;-83
2023/09/17 02:35:25;;;;;;;4.33;3.93;;;15.80;99.90;;;;;;2063167;28;20467;-84
2023/09/17 02:36:25;;;;;;;5.80;3.70;;;15.70;99.90;;;;;;2063074;28;20247;-84
2023/09/17 02:37:26;;;;;;;4.37;3.77;;;15.60;99.90;;;;;;2054520;28;20253;-83
2023/09/17 02:38:27;;;;;;;4.17;3.60;;;15.70;99.90;;;;;;2055825;28;20218;-84
2023/09/17 02:39:27;;;;;;;3.90;3.23;;;15.70;99.90;;;;;;2063006;28;20302;-84
2023/09/17 02:40:29;;;;;;;3.70;3.40;;;15.70;99.90;;;;;;2046478;28;20226;-83
2023/09/17 02:41:29;;;;;;;4.27;3.60;;;15.70;99.90;;;;;;2055455;28;20218;-84
2023/09/17 02:42:30;;;;;;;4.37;3.50;;;15.60;99.90;;;;;;2051309;28;20970;-83
2023/09/17 02:43:31;;;;;;;4.60;3.60;;;15.60;99.90;;;;;;2063379;28;20214;-83
2023/09/17 02:44:31;;;;;;;6.80;3.57;;;15.70;99.90;;;;;;2056450;28;20285;-84
2023/09/17 02:45:32;;;;;;;4.47;3.93;;;15.70;99.90;;;;;;2059427;28;20273;-83
2023/09/17 02:46:34;;;;;;;5.60;3.40;;;15.70;99.90;;;;;;2064578;28;20741;-84
2023/09/17 02:47:35;;;;;;;4.70;3.37;;;15.80;99.90;;;;;;2066944;28;20230;-84
2023/09/17 02:48:35;;;;;;;3.93;3.57;;;15.70;99.90;;;;;;2062593;28;20460;-84
2023/09/17 02:49:37;;;;;;;4.17;3.40;;;15.80;99.90;;;;;;2048011;28;20253;-84
2023/09/17 02:50:42;;;;;;;4.37;3.60;;;15.70;99.90;;;;;;2065867;28;20599;-83
2023/09/17 02:51:42;;;;;;;4.27;2.93;;;15.80;99.90;;;;;;2080780;28;20229;-84
2023/09/17 02:52:43;;;;;;;5.47;3.93;;;15.80;99.90;;;;;;2065219;28;20467;-84
2023/09/17 02:53:44;;;;;;;3.40;3.10;;;15.80;99.90;;;;;;2062629;28;20214;-83
2023/09/17 02:54:44;;;;;;;3.40;3.10;;;15.80;99.90;;;;;;2056499;28;20234;-84
2023/09/17 02:55:45;;;;;;;5.67;3.07;;;16.00;99.90;;;;;;2055241;28;20253;-84
2023/09/17 02:56:46;;;;;;;5.27;3.47;;;16.00;99.90;;;;;;2063245;28;20226;-83
2023/09/17 02:57:48;;;;;;;4.93;3.50;;;16.00;99.90;;;;;;2064726;28;20240;-83
2023/09/17 02:58:49;;;;;;;4.77;3.43;;;16.10;99.90;;;;;;2063279;28;20257;-83
2023/09/17 02:59:51;;;;;;;5.13;3.17;;;16.10;99.90;;;;;;2056813;28;20980;-83
2023/09/17 03:00:52;;;;;;;4.13;3.70;;;16.00;99.90;;;;;;2063593;28;20221;-83
2023/09/17 03:01:52;;;;;;;3.57;3.07;;;16.10;99.90;;;;;;2071388;28;20481;-84
2023/09/17 03:02:54;;;;;;;4.10;3.10;;;16.00;99.90;;;;;;2064176;28;20284;-84
2023/09/17 03:03:55;;;;;;;4.17;3.43;;;16.00;99.90;;;;;;2055582;28;20730;-83
2023/09/17 03:04:58;;;;;;;4.20;3.30;;;16.10;99.90;;;;;;2055451;28;20469;-85
2023/09/17 03:05:59;;;;;;;6.27;3.57;;;16.10;99.90;;;;;;2055755;28;20226;-84
2023/09/17 03:07:00;;;;;;;4.43;3.23;;;16.00;99.90;;;;;;2058052;28;20472;-83
2023/09/17 03:08:00;;;;;;;4.13;3.20;;;16.00;99.90;;;;;;2062926;28;20580;-83
2023/09/17 03:09:01;;;;;;;4.37;3.80;;;16.10;99.90;;;;;;2046089;28;20882;-84
2023/09/17 03:10:07;;;;;;;4.07;3.10;;;16.10;99.90;;;;;;2052509;28;20912;-84
2023/09/17 03:11:13;;;;;;;4.53;4.00;;;15.90;99.90;;;;;;2058409;28;20672;-83
2023/09/17 03:12:14;;;;;;;4.90;3.60;;;15.80;99.90;;;;;;2055937;28;21009;-84
2023/09/17 03:13:16;;;;;;;3.60;3.30;;;15.90;99.90;;;;;;2061313;28;20498;-83
2023/09/17 03:14:18;;;;;;;4.07;3.60;;;15.70;99.90;;;;;;2061420;28;20218;-84
2023/09/17 03:15:19;;;;;;;4.20;3.23;;;15.80;99.90;;;;;;2065088;28;20431;-84
2023/09/17 03:16:19;;;;;;;3.60;3.30;;;15.80;99.90;;;;;;2062238;28;20444;-84
2023/09/17 03:17:20;;;;;;;3.73;3.43;;;15.70;99.90;;;;;;2063044;28;20455;-83
2023/09/17 03:18:21;;;;;;;4.73;3.60;;;15.70;99.90;;;;;;2062317;28;20194;-83
2023/09/17 03:19:22;;;;;;;4.47;3.50;;;15.70;99.90;;;;;;2062744;28;20663;-83
2023/09/17 03:20:22;;;;;;;3.00;2.70;;;15.70;99.90;;;;;;2055595;28;20250;-83
2023/09/17 03:21:23;;;;;;;5.70;3.40;;;15.90;99.90;;;;;;2055944;28;20226;-82
2023/09/17 03:22:24;;;;;;;4.47;3.10;;;15.80;99.90;;;;;;2062957;28;20697;-82
2023/09/17 03:23:24;;;;;;;4.00;3.23;;;15.90;99.90;;;;;;2062035;28;20242;-83
2023/09/17 03:24:25;;;;;;;2.97;2.77;;;16.00;99.90;;;;;;2057564;28;20355;-82
2023/09/17 03:25:26;;;;;;;3.70;3.27;;;16.00;99.90;;;;;;2054776;28;20304;-82
2023/09/17 03:26:26;;;;;;;3.93;3.43;;;16.00;99.90;;;;;;2054894;28;20219;-83
2023/09/17 03:27:27;;;;;;;4.43;3.20;;;15.90;99.90;;;;;;2055283;28;20237;-83
2023/09/17 03:28:28;;;;;;;3.70;3.40;;;16.00;99.90;;;;;;2054634;28;20306;-83
2023/09/17 03:29:29;;;;;;;4.33;3.50;;;16.10;99.90;;;;;;2054618;28;20224;-82
2023/09/17 03:30:29;;;;;;;4.77;3.30;;;16.10;99.90;;;;;;2062982;28;20265;-82
2023/09/17 03:31:30;;;;;;;4.00;3.20;;;16.20;99.90;;;;;;2062157;28;20698;-83
2023/09/17 03:32:32;;;;;;;6.33;3.40;;;16.20;99.90;;;;;;2064141;28;20301;-83
2023/09/17 03:33:32;;;;;;;5.50;3.40;;;16.10;99.90;;;;;;2055517;28;20262;-83
2023/09/17 03:34:33;;;;;;;5.43;3.30;;;16.20;99.90;;;;;;2054774;28;20520;-83
2023/09/17 03:35:34;;;;;;;5.80;3.70;;;16.20;99.90;;;;;;2071386;28;20308;-83
2023/09/17 03:36:38;;;;;;;3.77;3.17;;;16.10;99.90;;;;;;2062951;28;20471;-83
2023/09/17 03:37:39;;;;;;;5.40;3.50;;;16.10;99.90;;;;;;2063341;28;20241;-83
2023/09/17 03:38:39;;;;;;;4.43;3.27;;;16.00;99.90;;;;;;2055285;28;20461;-83
2023/09/17 03:39:43;;;;;;;4.80;3.73;;;16.10;99.90;;;;;;2062779;28;20304;-83
2023/09/17 03:40:44;;;;;;;5.13;3.60;;;16.10;99.90;;;;;;2068154;28;20303;-83
2023/09/17 03:41:45;;;;;;;4.70;3.43;;;16.00;99.90;;;;;;2055264;28;20564;-83
2023/09/17 03:42:47;;;;;;;4.70;3.43;;;16.00;99.90;;;;;;2068767;28;20485;-83
2023/09/17 03:43:47;;;;;;;4.47;3.50;;;16.00;99.90;;;;;;2062828;28;20317;-83
2023/09/17 03:44:48;;;;;;;5.10;3.30;;;15.90;99.90;;;;;;2067837;28;20468;-83
2023/09/17 03:45:49;;;;;;;4.90;3.70;;;16.00;99.90;;;;;;2058983;28;20695;-83
2023/09/17 03:46:49;;;;;;;4.43;3.33;;;16.00;99.90;;;;;;2055021;28;20234;-83
2023/09/17 03:47:50;;;;;;;4.00;3.53;;;15.90;99.90;;;;;;2072614;28;20245;-83
2023/09/17 03:48:51;;;;;;;4.80;3.70;;;15.90;99.90;;;;;;2066895;28;20750;-83
2023/09/17 03:49:52;;;;;;;4.13;3.37;;;15.90;99.90;;;;;;2059613;28;20472;-83
2023/09/17 03:50:52;;;;;;;4.17;3.57;;;15.90;99.90;;;;;;2059707;28;20222;-84
2023/09/17 03:51:53;;;;;;;4.97;3.50;;;15.70;99.90;;;;;;2059185;28;20235;-83
2023/09/17 03:52:57;;;;;;;3.67;3.13;;;15.70;99.90;;;;;;2060425;28;20265;-83
2023/09/17 03:53:59;;;;;;;4.43;3.50;;;15.60;99.90;;;;;;2060632;28;20230;-83
2023/09/17 03:55:01;;;;;;;4.63;3.77;;;15.60;99.90;;;;;;2064601;28;20467;-83
2023/09/17 03:56:03;;;;;;;5.00;3.23;;;15.60;99.90;;;;;;2058413;28;20476;-84
2023/09/17 03:57:04;;;;;;;5.67;3.57;;;15.60;99.90;;;;;;2060663;28;20516;-84
2023/09/17 03:58:08;;;;;;;5.20;3.03;;;15.60;99.90;;;;;;2061666;28;20424;-83
2023/09/17 03:59:09;;;;;;;5.13;3.30;;;15.70;99.90;;;;;;2062115;28;20921;-83
2023/09/17 04:00:11;;;;;;;4.20;3.30;;;15.60;99.90;;;;;;2071682;28;20440;-82
2023/09/17 04:01:13;;;;;;;6.90;3.80;;;15.60;99.90;;;;;;2054302;28;20711;-84
2023/09/17 04:02:14;;;;;;;5.17;3.67;;;15.70;99.90;;;;;;2054379;28;20441;-83
2023/09/17 04:03:19;;;;;;;5.53;3.53;;;15.70;99.90;;;;;;2058322;28;20424;-84
2023/09/17 04:04:19;;;;;;;4.23;3.10;;;15.70;99.90;;;;;;2064137;28;20423;-82
2023/09/17 04:05:21;;;;;;;4.87;3.70;;;15.80;99.90;;;;;;2075001;28;20455;-83
2023/09/17 04:06:21;;;;;;;5.73;4.03;;;15.60;99.90;;;;;;2074178;28;20269;-82
2023/09/17 04:07:22;;;;;;;5.23;3.53;;;15.60;99.90;;;;;;2074546;28;20463;-83
2023/09/17 04:08:24;;;;;;;4.27;3.23;;;15.50;99.90;;;;;;2058006;28;20243;-83
2023/09/17 04:09:25;;;;;;;4.27;3.50;;;15.50;99.90;;;;;;2065780;28;20215;-83
2023/09/17 04:10:26;;;;;;;4.47;3.40;;;15.50;99.90;;;;;;2066316;28;20496;-83
2023/09/17 04:11:28;;;;;;;4.60;3.57;;;15.50;99.90;;;;;;2074850;28;20463;-83
2023/09/17 04:12:29;;;;;;;4.77;3.23;;;15.50;99.90;;;;;;2073842;28;20213;-83
2023/09/17 04:13:30;;;;;;;3.77;3.37;;;15.50;99.90;;;;;;2074362;28;20460;-82
2023/09/17 04:14:31;;;;;;;4.90;3.40;;;15.50;99.90;;;;;;2074693;28;20206;-82
2023/09/17 04:15:32;;;;;;;4.93;3.63;;;15.50;99.90;;;;;;2066274;28;20532;-83
2023/09/17 04:16:33;;;;;;;4.87;3.67;;;15.50;99.90;;;;;;2066257;28;20445;-83
2023/09/17 04:17:34;;;;;;;3.93;3.40;;;15.50;99.90;;;;;;2074485;28;20225;-82
2023/09/17 04:18:34;;;;;;;4.93;3.30;;;15.50;99.90;;;;;;2074077;28;20222;-83
2023/09/17 04:19:35;;;;;;;5.53;3.90;;;15.40;99.90;;;;;;2066130;28;20281;-82
2023/09/17 04:20:36;;;;;;;7.27;3.90;;;15.30;99.90;;;;;;2066052;28;20218;-82
2023/09/17 04:21:36;;;;;;;6.20;3.90;;;15.10;99.90;;;;;;2066564;28;20211;-82
2023/09/17 04:22:37;;;;;;;3.87;3.30;;;15.10;99.90;;;;;;2074789;28;20341;-83
2023/09/17 04:23:38;;;;;;;5.63;3.60;;;15.10;99.90;;;;;;2074594;28;20257;-82
2023/09/17 04:24:39;;;;;;;4.47;3.70;;;15.10;99.90;;;;;;2074740;28;20230;-82
2023/09/17 04:25:39;;;;;;;4.70;3.80;;;15.10;99.90;;;;;;2065850;28;20298;-82
2023/09/17 04:26:40;;;;;;;5.30;3.93;;;15.10;99.90;;;;;;2066221;28;20227;-82
2023/09/17 04:27:41;;;;;;;5.53;3.47;;;15.20;99.90;;;;;;2066465;28;20265;-83
2023/09/17 04:28:43;;;;;;;4.10;3.70;;;15.30;99.90;;;;;;2068094;28;20238;-82
2023/09/17 04:29:43;;;;;;;5.00;3.50;;;15.40;99.90;;;;;;2072122;28;20488;-82
2023/09/17 04:30:44;;;;;;;5.47;3.77;;;15.40;99.90;;;;;;2076868;28;20486;-82
2023/09/17 04:31:46;;;;;;;4.93;3.90;;;15.50;99.90;;;;;;2066293;28;20234;-83
2023/09/17 04:32:50;;;;;;;4.30;3.90;;;15.50;99.90;;;;;;2074392;28;20222;-83
2023/09/17 04:33:51;;;;;;;4.57;3.60;;;15.50;99.90;;;;;;2074652;28;20464;-82
2023/09/17 04:34:52;;;;;;;4.33;3.97;;;15.50;99.90;;;;;;2066490;28;20556;-82
2023/09/17 04:35:57;;;;;;;4.17;3.63;;;15.50;99.90;;;;;;2074976;28;20234;-82
2023/09/17 04:36:58;;;;;;;4.20;3.63;;;15.50;99.90;;;;;;2074198;28;20470;-83
2023/09/17 04:37:59;;;;;;;4.13;3.40;;;15.50;99.90;;;;;;2083017;28;20465;-82
2023/09/17 04:39:00;;;;;;;4.73;3.77;;;15.50;99.90;;;;;;2082267;28;20529;-83
2023/09/17 04:40:02;;;;;;;4.60;3.47;;;15.50;99.90;;;;;;2082328;28;20236;-83
2023/09/17 04:41:03;;;;;;;4.83;3.80;;;15.40;99.90;;;;;;2073386;28;20214;-84
2023/09/17 04:42:04;;;;;;;6.23;3.70;;;15.50;99.90;;;;;;2065923;28;20425;-84
2023/09/17 04:43:05;;;;;;;5.10;3.77;;;15.50;99.90;;;;;;2074321;28;20198;-81
2023/09/17 04:44:07;;;;;;;4.33;3.70;;;15.50;99.90;;;;;;2072848;28;20511;-85
2023/09/17 04:45:09;;;;;;;3.57;3.27;;;15.50;99.90;;;;;;2067099;28;20436;-83
2023/09/17 04:46:10;;;;;;;6.70;3.53;;;15.50;99.90;;;;;;2066338;28;20613;-83
2023/09/17 04:47:11;;;;;;;5.03;3.53;;;15.50;99.90;;;;;;2066259;28;20440;-83
2023/09/17 04:48:11;;;;;;;4.10;3.70;;;15.50;99.90;;;;;;2073656;28;20206;-83
2023/09/17 04:49:12;;;;;;;3.77;3.20;;;15.50;99.90;;;;;;2073742;28;20178;-83
2023/09/17 04:50:13;;;;;;;4.33;3.60;;;15.50;99.90;;;;;;2073435;28;20206;-84
2023/09/17 04:51:16;;;;;;;6.50;3.57;;;15.50;99.90;;;;;;2065700;28;20203;-83
2023/09/17 04:52:17;;;;;;;5.23;3.83;;;15.50;99.90;;;;;;2066824;28;20183;-82
2023/09/17 04:53:18;;;;;;;4.37;3.47;;;15.40;99.90;;;;;;2058383;28;20453;-84
2023/09/17 04:54:20;;;;;;;4.90;2.97;;;15.50;99.90;;;;;;2065843;28;20433;-83
2023/09/17 04:55:20;;;;;;;4.93;3.37;;;15.50;99.90;;;;;;2066675;28;20218;-83
2023/09/17 04:56:21;;;;;;;6.07;3.53;;;15.50;99.90;;;;;;2058379;28;20519;-82
2023/09/17 04:57:22;;;;;;;4.23;3.53;;;15.50;99.90;;;;;;2065685;28;20300;-84
2023/09/17 04:58:22;;;;;;;4.47;3.43;;;15.50;99.90;;;;;;2073810;28;20294;-84
2023/09/17 04:59:23;;;;;;;8.03;3.47;;;15.60;99.90;;;;;;2081875;28;20225;-84
2023/09/17 05:00:24;;;;;;;5.87;3.60;;;15.50;99.90;;;;;;2073371;28;20222;-83
2023/09/17 05:01:25;;;;;;;5.50;4.10;;;15.50;99.90;;;;;;2073996;28;20229;-83
2023/09/17 05:02:27;;;;;;;4.00;3.70;;;15.50;99.90;;;;;;2082087;28;20221;-84
2023/09/17 05:03:27;;;;;;;4.80;3.27;;;15.50;99.90;;;;;;2073549;28;20471;-83
2023/09/17 05:04:28;;;;;;;5.57;3.80;;;15.50;99.90;;;;;;2066007;28;20463;-83
2023/09/17 05:05:30;;;;;;;4.30;3.87;;;15.60;99.90;;;;;;2075067;28;20226;-83
2023/09/17 05:06:31;;;;;;;5.87;3.70;;;15.50;99.90;;;;;;2074198;28;20241;-85
2023/09/17 05:07:31;;;;;;;4.63;3.67;;;15.50;99.90;;;;;;2074499;28;20475;-84
2023/09/17 05:08:32;;;;;;;4.83;3.70;;;15.50;99.90;;;;;;2080948;28;20221;-84
2023/09/17 05:09:33;;;;;;;5.80;3.80;;;15.50;99.90;;;;;;2080931;28;20213;-83
2023/09/17 05:10:34;;;;;;;4.40;3.53;;;15.40;99.90;;;;;;2073493;28;20220;-84
2023/09/17 05:11:35;;;;;;;4.13;3.73;;;15.50;99.90;;;;;;2057547;28;21004;-84
2023/09/17 05:12:35;;;;;;;4.37;3.83;;;15.40;99.90;;;;;;2052581;28;20223;-85
2023/09/17 05:13:36;;;;;;;5.70;4.00;;;15.30;99.90;;;;;;2068804;28;20257;-85
2023/09/17 05:14:37;;;;;;;4.03;3.63;;;15.40;99.90;;;;;;2061829;28;20223;-85
2023/09/17 05:15:38;;;;;;;3.97;3.60;;;15.30;99.90;;;;;;2062653;28;20759;-84
2023/09/17 05:16:39;;;;;;;6.47;3.97;;;15.30;99.90;;;;;;2064013;28;20237;-85
2023/09/17 05:17:40;;;;;;;4.27;3.83;;;15.30;99.90;;;;;;2064580;28;20502;-85
2023/09/17 05:18:41;;;;;;;5.37;3.80;;;15.30;99.90;;;;;;2056217;28;20468;-85
2023/09/17 05:19:41;;;;;;;5.80;3.50;;;15.30;99.90;;;;;;2056220;28;20237;-84
2023/09/17 05:20:44;;;;;;;4.17;3.77;;;15.40;99.90;;;;;;2065330;28;20309;-84
2023/09/17 05:21:44;;;;;;;5.43;3.80;;;15.30;99.90;;;;;;2057161;28;20803;-82